sensor_id;sensor_type;location;lat;lon;timestamp;P1;durP1;ratioP1;P2;durP2;ratioP2
60018;SDS011;45870;42.528;26.740;2022-08-03T00:01:38;18.00;;;12.15;;
60018;SDS011;45870;42.528;26.740;2022-08-03T00:04:05;19.30;;;12.63;;
60018;SDS011;45870;42.528;26.740;2022-08-03T00:06:32;17.35;;;13.07;;
60018;SDS011;45870;42.528;26.740;2022-08-03T00:08:58;14.30;;;12.60;;
60018;SDS011;45870;42.528;26.740;2022-08-03T00:11:24;17.67;;;13.20;;
60018;SDS011;45870;42.528;26.740;2022-08-03T00:13:50;14.70;;;13.10;;
60018;SDS011;45870;42.528;26.740;2022-08-03T00:16:17;15.75;;;12.73;;
60018;SDS011;45870;42.528;26.740;2022-08-03T00:18:43;13.15;;;11.77;;
60018;SDS011;45870;42.528;26.740;2022-08-03T00:21:09;13.25;;;10.65;;
60018;SDS011;45870;42.528;26.740;2022-08-03T00:23:35;12.88;;;11.57;;
60018;SDS011;45870;42.528;26.740;2022-08-03T00:26:01;12.95;;;11.25;;
60018;SDS011;45870;42.528;26.740;2022-08-03T00:28:27;15.38;;;12.27;;
60018;SDS011;45870;42.528;26.740;2022-08-03T00:30:53;15.23;;;12.35;;
60018;SDS011;45870;42.528;26.740;2022-08-03T00:33:20;13.40;;;12.00;;
60018;SDS011;45870;42.528;26.740;2022-08-03T00:35:46;14.52;;;12.07;;
60018;SDS011;45870;42.528;26.740;2022-08-03T00:38:12;14.32;;;12.80;;
60018;SDS011;45870;42.528;26.740;2022-08-03T00:40:38;14.43;;;12.50;;
60018;SDS011;45870;42.528;26.740;2022-08-03T00:43:04;16.27;;;12.63;;
60018;SDS011;45870;42.528;26.740;2022-08-03T00:45:34;24.08;;;13.90;;
60018;SDS011;45870;42.528;26.740;2022-08-03T00:48:02;16.58;;;13.23;;
60018;SDS011;45870;42.528;26.740;2022-08-03T00:50:29;14.77;;;13.00;;
60018;SDS011;45870;42.528;26.740;2022-08-03T00:52:59;16.70;;;12.80;;
60018;SDS011;45870;42.528;26.740;2022-08-03T00:55:29;15.18;;;13.18;;
60018;SDS011;45870;42.528;26.740;2022-08-03T00:57:55;15.98;;;13.15;;
60018;SDS011;45870;42.528;26.740;2022-08-03T01:00:22;15.65;;;13.15;;
60018;SDS011;45870;42.528;26.740;2022-08-03T01:02:49;14.52;;;12.38;;
60018;SDS011;45870;42.528;26.740;2022-08-03T01:05:15;13.77;;;11.45;;
60018;SDS011;45870;42.528;26.740;2022-08-03T01:15:40;16.30;;;13.10;;
60018;SDS011;45870;42.528;26.740;2022-08-03T01:18:10;15.40;;;12.98;;
60018;SDS011;45870;42.528;26.740;2022-08-03T01:20:54;14.48;;;11.27;;
60018;SDS011;45870;42.528;26.740;2022-08-03T01:32:01;16.00;;;13.27;;
60018;SDS011;45870;42.528;26.740;2022-08-03T01:34:33;16.95;;;14.65;;
60018;SDS011;45870;42.528;26.740;2022-08-03T01:37:05;14.50;;;12.73;;
60018;SDS011;45870;42.528;26.740;2022-08-03T01:39:35;15.77;;;14.13;;
60018;SDS011;45870;42.528;26.740;2022-08-03T01:42:04;18.60;;;13.18;;
60018;SDS011;45870;42.528;26.740;2022-08-03T01:44:39;14.77;;;13.00;;
60018;SDS011;45870;42.528;26.740;2022-08-03T01:47:07;15.85;;;14.20;;
60018;SDS011;45870;42.528;26.740;2022-08-03T01:49:42;17.73;;;13.75;;
60018;SDS011;45870;42.528;26.740;2022-08-03T01:52:09;19.13;;;12.98;;
60018;SDS011;45870;42.528;26.740;2022-08-03T01:54:42;14.30;;;12.85;;
60018;SDS011;45870;42.528;26.740;2022-08-03T01:57:09;15.48;;;13.02;;
60018;SDS011;45870;42.528;26.740;2022-08-03T01:59:36;16.10;;;13.77;;
60018;SDS011;45870;42.528;26.740;2022-08-03T02:02:05;16.58;;;14.30;;
60018;SDS011;45870;42.528;26.740;2022-08-03T02:04:32;16.42;;;13.93;;
60018;SDS011;45870;42.528;26.740;2022-08-03T02:07:00;16.27;;;14.45;;
60018;SDS011;45870;42.528;26.740;2022-08-03T02:09:27;15.35;;;13.65;;
60018;SDS011;45870;42.528;26.740;2022-08-03T02:11:55;17.25;;;14.27;;
60018;SDS011;45870;42.528;26.740;2022-08-03T02:14:22;21.70;;;15.95;;
60018;SDS011;45870;42.528;26.740;2022-08-03T02:16:49;18.90;;;14.68;;
60018;SDS011;45870;42.528;26.740;2022-08-03T02:19:16;16.92;;;14.23;;
60018;SDS011;45870;42.528;26.740;2022-08-03T02:21:44;16.85;;;14.95;;
60018;SDS011;45870;42.528;26.740;2022-08-03T02:24:11;14.57;;;12.70;;
60018;SDS011;45870;42.528;26.740;2022-08-03T02:26:37;14.55;;;12.15;;
60018;SDS011;45870;42.528;26.740;2022-08-03T02:29:06;13.52;;;12.02;;
60018;SDS011;45870;42.528;26.740;2022-08-03T02:31:38;14.73;;;12.18;;
60018;SDS011;45870;42.528;26.740;2022-08-03T02:34:07;15.85;;;12.10;;
60018;SDS011;45870;42.528;26.740;2022-08-03T02:36:36;14.65;;;11.85;;
60018;SDS011;45870;42.528;26.740;2022-08-03T02:39:09;12.48;;;11.05;;
60018;SDS011;45870;42.528;26.740;2022-08-03T02:41:37;13.57;;;11.30;;
60018;SDS011;45870;42.528;26.740;2022-08-03T02:44:09;13.07;;;10.68;;
60018;SDS011;45870;42.528;26.740;2022-08-03T02:46:38;11.18;;;10.00;;
60018;SDS011;45870;42.528;26.740;2022-08-03T02:49:08;11.00;;;9.60;;
60018;SDS011;45870;42.528;26.740;2022-08-03T02:51:36;10.93;;;9.65;;
60018;SDS011;45870;42.528;26.740;2022-08-03T02:54:04;10.82;;;9.70;;
60018;SDS011;45870;42.528;26.740;2022-08-03T02:56:32;11.70;;;10.30;;
60018;SDS011;45870;42.528;26.740;2022-08-03T02:58:59;13.45;;;9.90;;
60018;SDS011;45870;42.528;26.740;2022-08-03T03:01:26;11.20;;;10.05;;
60018;SDS011;45870;42.528;26.740;2022-08-03T03:03:54;13.27;;;9.40;;
60018;SDS011;45870;42.528;26.740;2022-08-03T03:06:22;12.07;;;9.23;;
60018;SDS011;45870;42.528;26.740;2022-08-03T03:08:49;11.02;;;8.93;;
60018;SDS011;45870;42.528;26.740;2022-08-03T03:11:16;11.10;;;8.90;;
60018;SDS011;45870;42.528;26.740;2022-08-03T03:13:43;11.18;;;9.68;;
60018;SDS011;45870;42.528;26.740;2022-08-03T03:16:12;10.60;;;9.40;;
60018;SDS011;45870;42.528;26.740;2022-08-03T03:18:39;10.15;;;8.50;;
60018;SDS011;45870;42.528;26.740;2022-08-03T03:21:08;8.68;;;7.78;;
60018;SDS011;45870;42.528;26.740;2022-08-03T03:23:35;8.52;;;7.35;;
60018;SDS011;45870;42.528;26.740;2022-08-03T03:26:03;8.43;;;7.53;;
60018;SDS011;45870;42.528;26.740;2022-08-03T03:28:29;8.07;;;7.03;;
60018;SDS011;45870;42.528;26.740;2022-08-03T03:30:56;8.68;;;6.35;;
60018;SDS011;45870;42.528;26.740;2022-08-03T03:33:23;7.68;;;6.75;;
60018;SDS011;45870;42.528;26.740;2022-08-03T03:35:49;8.20;;;5.72;;
60018;SDS011;45870;42.528;26.740;2022-08-03T03:38:16;6.57;;;5.38;;
60018;SDS011;45870;42.528;26.740;2022-08-03T03:40:42;6.55;;;5.25;;
60018;SDS011;45870;42.528;26.740;2022-08-03T03:43:09;6.10;;;5.00;;
60018;SDS011;45870;42.528;26.740;2022-08-03T03:45:36;8.88;;;4.65;;
60018;SDS011;45870;42.528;26.740;2022-08-03T03:48:05;4.80;;;4.40;;
60018;SDS011;45870;42.528;26.740;2022-08-03T03:50:32;5.70;;;4.68;;
60018;SDS011;45870;42.528;26.740;2022-08-03T03:53:03;5.88;;;4.57;;
60018;SDS011;45870;42.528;26.740;2022-08-03T03:55:29;4.85;;;4.30;;
60018;SDS011;45870;42.528;26.740;2022-08-03T03:57:55;7.20;;;4.07;;
60018;SDS011;45870;42.528;26.740;2022-08-03T04:00:21;5.28;;;3.90;;
60018;SDS011;45870;42.528;26.740;2022-08-03T04:02:47;4.07;;;3.67;;
60018;SDS011;45870;42.528;26.740;2022-08-03T04:05:13;7.75;;;4.20;;
60018;SDS011;45870;42.528;26.740;2022-08-03T04:08:15;7.70;;;3.97;;
60018;SDS011;45870;42.528;26.740;2022-08-03T04:11:19;6.15;;;3.70;;
60018;SDS011;45870;42.528;26.740;2022-08-03T04:13:49;3.90;;;3.50;;
60018;SDS011;45870;42.528;26.740;2022-08-03T04:16:21;4.95;;;3.47;;
60018;SDS011;45870;42.528;26.740;2022-08-03T04:18:51;4.40;;;3.35;;
60018;SDS011;45870;42.528;26.740;2022-08-03T04:21:20;3.60;;;3.30;;
60018;SDS011;45870;42.528;26.740;2022-08-03T04:23:48;8.07;;;3.33;;
60018;SDS011;45870;42.528;26.740;2022-08-03T04:26:18;4.53;;;2.95;;
60018;SDS011;45870;42.528;26.740;2022-08-03T04:28:46;6.35;;;3.13;;
60018;SDS011;45870;42.528;26.740;2022-08-03T04:31:15;3.67;;;3.05;;
60018;SDS011;45870;42.528;26.740;2022-08-03T04:33:44;3.22;;;2.80;;
60018;SDS011;45870;42.528;26.740;2022-08-03T04:36:20;4.25;;;2.90;;
60018;SDS011;45870;42.528;26.740;2022-08-03T04:38:52;3.90;;;2.92;;
60018;SDS011;45870;42.528;26.740;2022-08-03T04:41:25;2.88;;;2.67;;
60018;SDS011;45870;42.528;26.740;2022-08-03T04:43:52;3.53;;;3.13;;
60018;SDS011;45870;42.528;26.740;2022-08-03T04:46:21;5.15;;;3.00;;
60018;SDS011;45870;42.528;26.740;2022-08-03T04:48:50;4.25;;;2.80;;
60018;SDS011;45870;42.528;26.740;2022-08-03T04:51:16;4.03;;;3.00;;
60018;SDS011;45870;42.528;26.740;2022-08-03T04:53:42;4.13;;;3.05;;
60018;SDS011;45870;42.528;26.740;2022-08-03T04:56:09;5.65;;;3.05;;
60018;SDS011;45870;42.528;26.740;2022-08-03T04:58:34;4.93;;;2.88;;
60018;SDS011;45870;42.528;26.740;2022-08-03T05:01:00;4.13;;;2.72;;
60018;SDS011;45870;42.528;26.740;2022-08-03T05:03:26;7.57;;;2.90;;
60018;SDS011;45870;42.528;26.740;2022-08-03T05:05:52;4.13;;;3.00;;
60018;SDS011;45870;42.528;26.740;2022-08-03T05:08:19;7.60;;;2.97;;
60018;SDS011;45870;42.528;26.740;2022-08-03T05:10:45;3.83;;;3.05;;
60018;SDS011;45870;42.528;26.740;2022-08-03T05:13:11;4.88;;;2.70;;
60018;SDS011;45870;42.528;26.740;2022-08-03T05:15:38;4.05;;;2.80;;
60018;SDS011;45870;42.528;26.740;2022-08-03T05:18:04;4.05;;;2.60;;
60018;SDS011;45870;42.528;26.740;2022-08-03T05:20:30;5.72;;;3.03;;
60018;SDS011;45870;42.528;26.740;2022-08-03T05:22:57;3.85;;;2.70;;
60018;SDS011;45870;42.528;26.740;2022-08-03T05:25:25;4.78;;;2.42;;
60018;SDS011;45870;42.528;26.740;2022-08-03T05:27:52;3.65;;;2.70;;
60018;SDS011;45870;42.528;26.740;2022-08-03T05:30:18;3.83;;;2.88;;
60018;SDS011;45870;42.528;26.740;2022-08-03T05:32:43;3.65;;;2.65;;
60018;SDS011;45870;42.528;26.740;2022-08-03T05:35:09;5.38;;;2.70;;
60018;SDS011;45870;42.528;26.740;2022-08-03T05:37:35;2.58;;;2.38;;
60018;SDS011;45870;42.528;26.740;2022-08-03T05:40:01;3.95;;;2.47;;
60018;SDS011;45870;42.528;26.740;2022-08-03T05:42:28;4.22;;;2.58;;
60018;SDS011;45870;42.528;26.740;2022-08-03T05:44:53;2.65;;;2.20;;
60018;SDS011;45870;42.528;26.740;2022-08-03T05:47:19;2.95;;;2.40;;
60018;SDS011;45870;42.528;26.740;2022-08-03T05:49:45;2.47;;;2.28;;
60018;SDS011;45870;42.528;26.740;2022-08-03T05:52:11;5.82;;;2.10;;
60018;SDS011;45870;42.528;26.740;2022-08-03T05:54:37;4.43;;;1.85;;
60018;SDS011;45870;42.528;26.740;2022-08-03T05:57:02;1.63;;;1.52;;
60018;SDS011;45870;42.528;26.740;2022-08-03T05:59:28;3.33;;;1.70;;
60018;SDS011;45870;42.528;26.740;2022-08-03T06:01:54;2.85;;;1.40;;
60018;SDS011;45870;42.528;26.740;2022-08-03T06:04:19;3.35;;;1.60;;
60018;SDS011;45870;42.528;26.740;2022-08-03T06:06:46;1.92;;;1.40;;
60018;SDS011;45870;42.528;26.740;2022-08-03T06:09:12;3.55;;;1.50;;
60018;SDS011;45870;42.528;26.740;2022-08-03T06:11:39;3.72;;;1.50;;
60018;SDS011;45870;42.528;26.740;2022-08-03T06:14:06;2.35;;;1.60;;
60018;SDS011;45870;42.528;26.740;2022-08-03T06:16:32;2.03;;;1.40;;
60018;SDS011;45870;42.528;26.740;2022-08-03T06:18:57;1.65;;;1.30;;
60018;SDS011;45870;42.528;26.740;2022-08-03T06:21:23;2.97;;;1.67;;
60018;SDS011;45870;42.528;26.740;2022-08-03T06:23:49;2.28;;;1.60;;
60018;SDS011;45870;42.528;26.740;2022-08-03T06:26:15;2.13;;;1.50;;
60018;SDS011;45870;42.528;26.740;2022-08-03T06:28:43;2.13;;;1.55;;
60018;SDS011;45870;42.528;26.740;2022-08-03T06:31:09;2.13;;;1.35;;
60018;SDS011;45870;42.528;26.740;2022-08-03T06:33:35;1.90;;;1.50;;
60018;SDS011;45870;42.528;26.740;2022-08-03T06:36:01;1.73;;;1.42;;
60018;SDS011;45870;42.528;26.740;2022-08-03T06:38:26;1.80;;;1.40;;
60018;SDS011;45870;42.528;26.740;2022-08-03T06:40:53;3.65;;;1.30;;
60018;SDS011;45870;42.528;26.740;2022-08-03T06:43:19;3.13;;;1.60;;
60018;SDS011;45870;42.528;26.740;2022-08-03T06:45:44;2.47;;;1.27;;
60018;SDS011;45870;42.528;26.740;2022-08-03T06:48:11;1.77;;;1.30;;
60018;SDS011;45870;42.528;26.740;2022-08-03T06:50:37;1.80;;;1.23;;
60018;SDS011;45870;42.528;26.740;2022-08-03T06:53:05;1.40;;;1.30;;
60018;SDS011;45870;42.528;26.740;2022-08-03T06:55:31;2.17;;;1.42;;
60018;SDS011;45870;42.528;26.740;2022-08-03T06:57:57;2.08;;;1.30;;
60018;SDS011;45870;42.528;26.740;2022-08-03T07:00:23;5.43;;;1.30;;
60018;SDS011;45870;42.528;26.740;2022-08-03T07:02:49;3.35;;;1.50;;
60018;SDS011;45870;42.528;26.740;2022-08-03T07:05:15;3.45;;;1.30;;
60018;SDS011;45870;42.528;26.740;2022-08-03T07:07:41;1.30;;;1.20;;
60018;SDS011;45870;42.528;26.740;2022-08-03T07:10:08;1.35;;;1.15;;
60018;SDS011;45870;42.528;26.740;2022-08-03T07:12:35;4.18;;;1.30;;
60018;SDS011;45870;42.528;26.740;2022-08-03T07:15:03;3.67;;;1.30;;
60018;SDS011;45870;42.528;26.740;2022-08-03T07:17:31;2.33;;;1.30;;
60018;SDS011;45870;42.528;26.740;2022-08-03T07:19:59;2.22;;;1.48;;
60018;SDS011;45870;42.528;26.740;2022-08-03T07:22:25;1.60;;;1.35;;
60018;SDS011;45870;42.528;26.740;2022-08-03T07:24:51;1.38;;;1.15;;
60018;SDS011;45870;42.528;26.740;2022-08-03T07:27:17;4.32;;;1.40;;
60018;SDS011;45870;42.528;26.740;2022-08-03T07:29:43;2.22;;;1.50;;
60018;SDS011;45870;42.528;26.740;2022-08-03T07:32:09;2.67;;;1.40;;
60018;SDS011;45870;42.528;26.740;2022-08-03T07:34:34;2.45;;;1.20;;
60018;SDS011;45870;42.528;26.740;2022-08-03T07:37:00;2.47;;;1.25;;
60018;SDS011;45870;42.528;26.740;2022-08-03T07:39:26;1.48;;;1.20;;
60018;SDS011;45870;42.528;26.740;2022-08-03T07:41:51;1.42;;;1.33;;
60018;SDS011;45870;42.528;26.740;2022-08-03T07:44:18;1.20;;;1.10;;
60018;SDS011;45870;42.528;26.740;2022-08-03T07:46:44;2.47;;;1.45;;
60018;SDS011;45870;42.528;26.740;2022-08-03T07:49:10;1.20;;;1.10;;
60018;SDS011;45870;42.528;26.740;2022-08-03T07:51:36;2.33;;;1.20;;
60018;SDS011;45870;42.528;26.740;2022-08-03T07:54:01;1.33;;;1.20;;
60018;SDS011;45870;42.528;26.740;2022-08-03T07:56:27;1.45;;;1.30;;
60018;SDS011;45870;42.528;26.740;2022-08-03T07:58:54;1.50;;;1.20;;
60018;SDS011;45870;42.528;26.740;2022-08-03T08:01:20;1.55;;;1.23;;
60018;SDS011;45870;42.528;26.740;2022-08-03T08:03:47;1.15;;;1.05;;
60018;SDS011;45870;42.528;26.740;2022-08-03T08:06:13;2.78;;;1.10;;
60018;SDS011;45870;42.528;26.740;2022-08-03T08:08:39;5.15;;;1.35;;
60018;SDS011;45870;42.528;26.740;2022-08-03T08:11:06;2.20;;;1.17;;
60018;SDS011;45870;42.528;26.740;2022-08-03T08:13:32;3.72;;;1.40;;
60018;SDS011;45870;42.528;26.740;2022-08-03T08:15:58;1.85;;;1.40;;
60018;SDS011;45870;42.528;26.740;2022-08-03T08:18:25;2.80;;;1.35;;
60018;SDS011;45870;42.528;26.740;2022-08-03T08:20:53;2.00;;;1.27;;
60018;SDS011;45870;42.528;26.740;2022-08-03T08:23:20;3.22;;;1.10;;
60018;SDS011;45870;42.528;26.740;2022-08-03T08:25:49;2.08;;;1.40;;
60018;SDS011;45870;42.528;26.740;2022-08-03T08:28:17;1.33;;;1.23;;
60018;SDS011;45870;42.528;26.740;2022-08-03T08:30:43;1.40;;;1.30;;
60018;SDS011;45870;42.528;26.740;2022-08-03T08:33:09;3.58;;;1.48;;
60018;SDS011;45870;42.528;26.740;2022-08-03T08:35:35;1.95;;;1.27;;
60018;SDS011;45870;42.528;26.740;2022-08-03T08:38:01;9.55;;;1.60;;
60018;SDS011;45870;42.528;26.740;2022-08-03T08:40:27;1.52;;;1.33;;
60018;SDS011;45870;42.528;26.740;2022-08-03T08:42:54;2.47;;;1.33;;
60018;SDS011;45870;42.528;26.740;2022-08-03T08:45:20;1.45;;;1.10;;
60018;SDS011;45870;42.528;26.740;2022-08-03T08:47:46;3.72;;;1.75;;
60018;SDS011;45870;42.528;26.740;2022-08-03T08:50:17;2.28;;;1.42;;
60018;SDS011;45870;42.528;26.740;2022-08-03T08:52:46;1.63;;;1.30;;
60018;SDS011;45870;42.528;26.740;2022-08-03T08:55:14;1.80;;;1.38;;
60018;SDS011;45870;42.528;26.740;2022-08-03T08:57:48;1.38;;;1.27;;
60018;SDS011;45870;42.528;26.740;2022-08-03T09:00:19;1.55;;;1.38;;
60018;SDS011;45870;42.528;26.740;2022-08-03T09:02:45;3.08;;;1.45;;
60018;SDS011;45870;42.528;26.740;2022-08-03T09:05:18;3.22;;;1.40;;
60018;SDS011;45870;42.528;26.740;2022-08-03T09:07:45;1.35;;;1.20;;
60018;SDS011;45870;42.528;26.740;2022-08-03T09:10:12;2.45;;;1.58;;
60018;SDS011;45870;42.528;26.740;2022-08-03T09:12:42;2.30;;;1.48;;
60018;SDS011;45870;42.528;26.740;2022-08-03T09:15:22;3.42;;;1.50;;
60018;SDS011;45870;42.528;26.740;2022-08-03T09:17:57;2.03;;;1.30;;
60018;SDS011;45870;42.528;26.740;2022-08-03T09:20:27;2.95;;;1.63;;
60018;SDS011;45870;42.528;26.740;2022-08-03T09:22:58;2.20;;;1.45;;
60018;SDS011;45870;42.528;26.740;2022-08-03T09:25:32;1.98;;;1.48;;
60018;SDS011;45870;42.528;26.740;2022-08-03T09:28:03;3.10;;;1.30;;
60018;SDS011;45870;42.528;26.740;2022-08-03T09:30:34;2.38;;;1.50;;
60018;SDS011;45870;42.528;26.740;2022-08-03T09:33:01;1.98;;;1.50;;
60018;SDS011;45870;42.528;26.740;2022-08-03T09:35:29;2.20;;;1.55;;
60018;SDS011;45870;42.528;26.740;2022-08-03T09:38:07;4.03;;;1.20;;
60018;SDS011;45870;42.528;26.740;2022-08-03T09:40:42;1.70;;;1.45;;
60018;SDS011;45870;42.528;26.740;2022-08-03T09:43:09;4.95;;;1.50;;
60018;SDS011;45870;42.528;26.740;2022-08-03T09:45:37;1.75;;;1.40;;
60018;SDS011;45870;42.528;26.740;2022-08-03T09:48:27;3.00;;;1.55;;
60018;SDS011;45870;42.528;26.740;2022-08-03T09:50:55;1.60;;;1.40;;
60018;SDS011;45870;42.528;26.740;2022-08-03T09:53:25;3.55;;;1.65;;
60018;SDS011;45870;42.528;26.740;2022-08-03T09:56:01;2.60;;;1.70;;
60018;SDS011;45870;42.528;26.740;2022-08-03T09:58:28;3.42;;;1.58;;
60018;SDS011;45870;42.528;26.740;2022-08-03T10:03:26;2.22;;;1.30;;
60018;SDS011;45870;42.528;26.740;2022-08-03T10:05:53;2.00;;;1.40;;
60018;SDS011;45870;42.528;26.740;2022-08-03T10:08:20;1.70;;;1.35;;
60018;SDS011;45870;42.528;26.740;2022-08-03T10:10:47;1.67;;;1.48;;
60018;SDS011;45870;42.528;26.740;2022-08-03T10:13:17;1.33;;;1.23;;
60018;SDS011;45870;42.528;26.740;2022-08-03T10:15:44;1.50;;;1.40;;
60018;SDS011;45870;42.528;26.740;2022-08-03T10:18:11;1.98;;;1.40;;
60018;SDS011;45870;42.528;26.740;2022-08-03T10:20:40;3.20;;;1.50;;
60018;SDS011;45870;42.528;26.740;2022-08-03T10:23:10;2.15;;;1.33;;
60018;SDS011;45870;42.528;26.740;2022-08-03T10:25:39;2.83;;;1.27;;
60018;SDS011;45870;42.528;26.740;2022-08-03T10:28:08;2.05;;;1.27;;
60018;SDS011;45870;42.528;26.740;2022-08-03T10:30:40;2.03;;;1.40;;
60018;SDS011;45870;42.528;26.740;2022-08-03T10:33:20;2.72;;;1.40;;
60018;SDS011;45870;42.528;26.740;2022-08-03T10:35:53;1.83;;;1.30;;
60018;SDS011;45870;42.528;26.740;2022-08-03T10:38:28;1.77;;;1.30;;
60018;SDS011;45870;42.528;26.740;2022-08-03T10:41:00;1.85;;;1.30;;
60018;SDS011;45870;42.528;26.740;2022-08-03T10:43:37;2.55;;;1.20;;
60018;SDS011;45870;42.528;26.740;2022-08-03T10:46:14;2.40;;;1.40;;
60018;SDS011;45870;42.528;26.740;2022-08-03T10:48:45;2.45;;;1.50;;
60018;SDS011;45870;42.528;26.740;2022-08-03T10:51:13;3.25;;;1.35;;
60018;SDS011;45870;42.528;26.740;2022-08-03T10:53:41;2.55;;;1.58;;
60018;SDS011;45870;42.528;26.740;2022-08-03T10:59:18;1.65;;;1.48;;
60018;SDS011;45870;42.528;26.740;2022-08-03T11:02:06;1.83;;;1.30;;
60018;SDS011;45870;42.528;26.740;2022-08-03T11:04:34;4.00;;;1.38;;
60018;SDS011;45870;42.528;26.740;2022-08-03T11:07:16;1.55;;;1.30;;
60018;SDS011;45870;42.528;26.740;2022-08-03T11:09:49;2.95;;;1.20;;
60018;SDS011;45870;42.528;26.740;2022-08-03T11:12:29;1.33;;;1.23;;
60018;SDS011;45870;42.528;26.740;2022-08-03T11:15:04;2.15;;;1.20;;
60018;SDS011;45870;42.528;26.740;2022-08-03T11:17:33;2.25;;;1.30;;
60018;SDS011;45870;42.528;26.740;2022-08-03T11:20:01;1.60;;;1.30;;
60018;SDS011;45870;42.528;26.740;2022-08-03T11:25:18;2.63;;;1.27;;
60018;SDS011;45870;42.528;26.740;2022-08-03T11:27:45;1.73;;;1.40;;
60018;SDS011;45870;42.528;26.740;2022-08-03T11:30:22;2.15;;;1.42;;
60018;SDS011;45870;42.528;26.740;2022-08-03T11:32:56;3.95;;;1.30;;
60018;SDS011;45870;42.528;26.740;2022-08-03T11:35:25;3.00;;;1.52;;
60018;SDS011;45870;42.528;26.740;2022-08-03T11:38:01;1.50;;;1.40;;
60018;SDS011;45870;42.528;26.740;2022-08-03T11:43:06;1.65;;;1.38;;
60018;SDS011;45870;42.528;26.740;2022-08-03T11:45:35;2.95;;;1.58;;
60018;SDS011;45870;42.528;26.740;2022-08-03T11:48:11;3.00;;;1.50;;
60018;SDS011;45870;42.528;26.740;2022-08-03T11:50:40;1.52;;;1.20;;
60018;SDS011;45870;42.528;26.740;2022-08-03T11:53:12;2.25;;;1.45;;
60018;SDS011;45870;42.528;26.740;2022-08-03T11:55:41;2.17;;;1.42;;
60018;SDS011;45870;42.528;26.740;2022-08-03T11:58:28;2.88;;;1.60;;
60018;SDS011;45870;42.528;26.740;2022-08-03T12:01:14;3.42;;;1.25;;
60018;SDS011;45870;42.528;26.740;2022-08-03T12:03:41;2.97;;;1.27;;
60018;SDS011;45870;42.528;26.740;2022-08-03T12:06:09;3.75;;;1.50;;
60018;SDS011;45870;42.528;26.740;2022-08-03T12:08:37;1.70;;;1.30;;
60018;SDS011;45870;42.528;26.740;2022-08-03T12:11:04;2.42;;;1.40;;
60018;SDS011;45870;42.528;26.740;2022-08-03T12:13:48;3.67;;;1.30;;
60018;SDS011;45870;42.528;26.740;2022-08-03T12:16:22;1.83;;;1.40;;
60018;SDS011;45870;42.528;26.740;2022-08-03T12:21:29;2.60;;;1.30;;
60018;SDS011;45870;42.528;26.740;2022-08-03T12:23:57;2.72;;;1.30;;
60018;SDS011;45870;42.528;26.740;2022-08-03T12:26:25;1.73;;;1.27;;
60018;SDS011;45870;42.528;26.740;2022-08-03T12:28:51;4.15;;;1.50;;
60018;SDS011;45870;42.528;26.740;2022-08-03T12:31:17;2.10;;;1.40;;
60018;SDS011;45870;42.528;26.740;2022-08-03T12:33:59;1.77;;;1.40;;
60018;SDS011;45870;42.528;26.740;2022-08-03T12:36:31;4.35;;;1.50;;
60018;SDS011;45870;42.528;26.740;2022-08-03T12:38:59;1.73;;;1.20;;
60018;SDS011;45870;42.528;26.740;2022-08-03T12:41:34;1.67;;;1.35;;
60018;SDS011;45870;42.528;26.740;2022-08-03T12:44:01;1.50;;;1.30;;
60018;SDS011;45870;42.528;26.740;2022-08-03T12:46:30;3.13;;;1.30;;
60018;SDS011;45870;42.528;26.740;2022-08-03T12:49:04;3.10;;;1.30;;
60018;SDS011;45870;42.528;26.740;2022-08-03T12:54:00;1.77;;;1.27;;
60018;SDS011;45870;42.528;26.740;2022-08-03T12:56:26;2.65;;;1.33;;
60018;SDS011;45870;42.528;26.740;2022-08-03T12:58:52;1.30;;;1.10;;
60018;SDS011;45870;42.528;26.740;2022-08-03T13:01:18;1.73;;;1.30;;
60018;SDS011;45870;42.528;26.740;2022-08-03T13:03:47;1.77;;;1.40;;
60018;SDS011;45870;42.528;26.740;2022-08-03T13:06:15;2.25;;;1.13;;
60018;SDS011;45870;42.528;26.740;2022-08-03T13:08:43;1.85;;;1.20;;
60018;SDS011;45870;42.528;26.740;2022-08-03T13:11:19;2.08;;;1.20;;
60018;SDS011;45870;42.528;26.740;2022-08-03T13:13:50;5.07;;;1.80;;
60018;SDS011;45870;42.528;26.740;2022-08-03T13:16:17;3.67;;;1.30;;
60018;SDS011;45870;42.528;26.740;2022-08-03T13:18:46;2.45;;;1.30;;
60018;SDS011;45870;42.528;26.740;2022-08-03T13:21:16;2.10;;;1.30;;
60018;SDS011;45870;42.528;26.740;2022-08-03T13:23:44;1.33;;;1.20;;
60018;SDS011;45870;42.528;26.740;2022-08-03T13:26:10;1.80;;;1.17;;
60018;SDS011;45870;42.528;26.740;2022-08-03T13:28:37;1.38;;;1.27;;
60018;SDS011;45870;42.528;26.740;2022-08-03T13:31:04;4.63;;;1.50;;
60018;SDS011;45870;42.528;26.740;2022-08-03T13:33:30;2.70;;;1.23;;
60018;SDS011;45870;42.528;26.740;2022-08-03T13:35:56;3.88;;;1.38;;
60018;SDS011;45870;42.528;26.740;2022-08-03T13:38:22;3.22;;;1.33;;
60018;SDS011;45870;42.528;26.740;2022-08-03T13:40:50;2.15;;;1.40;;
60018;SDS011;45870;42.528;26.740;2022-08-03T13:43:17;1.40;;;1.30;;
60018;SDS011;45870;42.528;26.740;2022-08-03T13:45:43;1.77;;;1.15;;
60018;SDS011;45870;42.528;26.740;2022-08-03T13:48:09;1.73;;;1.40;;
60018;SDS011;45870;42.528;26.740;2022-08-03T13:50:35;1.50;;;1.30;;
60018;SDS011;45870;42.528;26.740;2022-08-03T13:53:01;1.42;;;1.13;;
60018;SDS011;45870;42.528;26.740;2022-08-03T13:55:26;4.25;;;1.50;;
60018;SDS011;45870;42.528;26.740;2022-08-03T13:57:52;1.50;;;1.40;;
60018;SDS011;45870;42.528;26.740;2022-08-03T14:00:18;1.58;;;1.23;;
60018;SDS011;45870;42.528;26.740;2022-08-03T14:02:48;4.47;;;1.40;;
60018;SDS011;45870;42.528;26.740;2022-08-03T14:05:14;2.03;;;1.30;;
60018;SDS011;45870;42.528;26.740;2022-08-03T14:07:40;2.22;;;1.42;;
60018;SDS011;45870;42.528;26.740;2022-08-03T14:10:06;2.47;;;1.35;;
60018;SDS011;45870;42.528;26.740;2022-08-03T14:12:32;4.07;;;1.48;;
60018;SDS011;45870;42.528;26.740;2022-08-03T14:14:59;2.03;;;1.38;;
60018;SDS011;45870;42.528;26.740;2022-08-03T14:17:25;2.47;;;1.52;;
60018;SDS011;45870;42.528;26.740;2022-08-03T14:19:50;1.75;;;1.40;;
60018;SDS011;45870;42.528;26.740;2022-08-03T14:22:16;1.55;;;1.40;;
60018;SDS011;45870;42.528;26.740;2022-08-03T14:24:42;1.83;;;1.50;;
60018;SDS011;45870;42.528;26.740;2022-08-03T14:27:08;2.28;;;1.63;;
60018;SDS011;45870;42.528;26.740;2022-08-03T14:29:33;2.28;;;1.55;;
60018;SDS011;45870;42.528;26.740;2022-08-03T14:31:59;2.13;;;1.45;;
60018;SDS011;45870;42.528;26.740;2022-08-03T14:34:25;2.03;;;1.38;;
60018;SDS011;45870;42.528;26.740;2022-08-03T14:36:51;3.13;;;1.50;;
60018;SDS011;45870;42.528;26.740;2022-08-03T14:39:17;1.50;;;1.40;;
60018;SDS011;45870;42.528;26.740;2022-08-03T14:41:42;1.63;;;1.40;;
60018;SDS011;45870;42.528;26.740;2022-08-03T14:44:08;2.58;;;1.45;;
60018;SDS011;45870;42.528;26.740;2022-08-03T14:46:34;2.53;;;1.30;;
60018;SDS011;45870;42.528;26.740;2022-08-03T14:49:00;3.53;;;1.40;;
60018;SDS011;45870;42.528;26.740;2022-08-03T14:51:25;3.42;;;1.60;;
60018;SDS011;45870;42.528;26.740;2022-08-03T14:53:52;2.13;;;1.60;;
60018;SDS011;45870;42.528;26.740;2022-08-03T14:56:17;3.17;;;1.42;;
60018;SDS011;45870;42.528;26.740;2022-08-03T14:58:43;1.88;;;1.50;;
60018;SDS011;45870;42.528;26.740;2022-08-03T15:01:09;3.35;;;1.40;;
60018;SDS011;45870;42.528;26.740;2022-08-03T15:03:35;1.63;;;1.40;;
60018;SDS011;45870;42.528;26.740;2022-08-03T15:06:01;2.35;;;1.63;;
60018;SDS011;45870;42.528;26.740;2022-08-03T15:08:27;2.15;;;1.55;;